Česky Dansk Deutsch English Español Suomi Français Magyar Italiano Nederlands norsk Polski Português svenska Türkçe

 

Het Weer

Melilla (Uruguay)

20:00, 2 augustus 2016 (GMT)

NWNNE
WE
SWSSE
Home            
Melilla Carrasco Capitan Corbeta Maldonado / Punta Est Colonia La Plata Aerodrome Durazno Aeroparque Bs. As. Aerodrome Buenos Aires Observatorio Ezeiza Aerodrome El Palomar Aerodrome San Fernando, BA Don Torcuato Aerodrome Dolores Aerodrome Mercedes Treinta Y Tres Villa Gesell Gualeguaychu Aerodrome Paysandu Melo Tacuarembo Mar Del Plata Aerodrome Tandil Aerodrome

Om een weerknop op uw website of weblog te plaatsen, copieer onderstaande code en plak die in uw pagina. In het eerste vakje staat HTML-code, in het tweede vakje UBB-code.


Add to Google

Details

Wind speed:4 bf, 11 kn, 5.7 m/s, 12.7 miles/h, 20.4 km/h
Wind direction:S, 190°
Visibility:Greater than 10000 m, 10 km, 32800 ft, 6.2 miles
Clouds:CAVOC
Temperature:9°C, 48°F
Dew-point:5°C, 41°F
Atmospheric pressure:1027 hPa, 770.3 mmHg, 30.33 inHg, 1.014 atm
Relative humidity:76.0 %
METAR:SUAA 022000Z 19011KT CAVOK 09/05 Q1027

Snelkoppelingen

Actuele weersinformatie van de hele wereld. Voeg locaties toe met het plus (+) symbool. Deze snelkoppelingen kunnen worden toegevoegd aan Google.

Lid van de Technetium groep

website free tracking
StatCounter NetStat W3C Validator

21-07-2019 05:22:26
astro.technetium.be money.technetium.be phote.technetium.be tafeltennistafel.technetium.be www.ligfiets.net